Muskrat — WDF7801 — position and weather

sailwx.info

Track history (hours):
 
Tides and Currents Weather Stations Pressure Air Temp Water Temp Dewpoint Dewpoint Depression Visibility Wind Speed Wind Dir Waves Ship Positions

Muskrat

Owner: Sunnyvale Ventures LLC, seattle, WA. More information available from US FCC via Universal Licensing System and Coast Guard Vessel Documentation Center.

Last reported at 2018-Jun-02 01:45 UTC. Time now 2018-Jun-22 00:00 UTC.
Position N 58°17' W 136°19'.
Warning: this ship's position is 19 days out of date.

Length 26 m; draft 3 m.

Type: Fishing. MMSI: 367488280.

Date/timePositionNaut miles runAvg speedWind from/ knotsBaromVisibWave heightAir tempDewpointWater temp
2018-Jun-02 01:45N 58°17' W 136°19'3 9.2
2018-Jun-02 01:28N 58°17' W 136°14'4 8.9
2018-Jun-02 00:58N 58°15' W 136°07'3 5.5
2018-Jun-02 00:27N 58°15' W 136°01'3 6.6
2018-Jun-01 23:59N 58°16' W 135°56'3 6.7
2018-Jun-01 23:30N 58°17' W 135°50'3 6.1
2018-Jun-01 23:00N 58°17' W 135°44'267 6.0
2018-May-31 02:21N 54°43' W 130°55'9 7.9
2018-May-31 01:17N 54°37' W 130°44'3 9.0
2018-May-31 00:56N 54°34' W 130°43'4 8.7
2018-May-31 00:29N 54°30' W 130°41'4 8.4
2018-May-31 00:00N 54°27' W 130°39'4 8.1
2018-May-30 23:30N 54°23' W 130°37'4 8.0
2018-May-30 23:00N 54°19' W 130°34'4 7.9
2018-May-30 22:30N 54°16' W 130°31'4 8.3
2018-May-30 22:00N 54°12' W 130°28'4 8.1
2018-May-30 21:30N 54°08' W 130°24'4 8.5
2018-May-30 21:00N 54°05' W 130°19'4 8.8
2018-May-30 20:30N 54°02' W 130°14'5 9.0
2018-May-30 20:00N 53°58' W 130°12'4 7.8
2018-May-30 19:30N 53°54' W 130°09'4 7.8
2018-May-30 19:00N 53°52' W 130°03'4 7.7
2018-May-30 18:30N 53°49' W 129°59'83 7.1
2018-May-30 06:42N 52°44' W 128°33'4 8.9
2018-May-30 06:12N 52°39' W 128°32'2 8.3
2018-May-30 06:00N 52°38' W 128°30'4 7.7
2018-May-30 05:28N 52°34' W 128°29'4 7.7
2018-May-30 04:58N 52°30' W 128°28'3 7.5
2018-May-30 04:30N 52°27' W 128°28'4 8.2
2018-May-30 03:59N 52°23' W 128°30'4 7.9
2018-May-30 03:30N 52°19' W 128°29'4 8.1
2018-May-30 02:59N 52°16' W 128°25'4 8.1
2018-May-30 02:28N 52°15' W 128°18'4 7.8
2018-May-30 02:00N 52°14' W 128°13'4 7.2
2018-May-30 01:30N 52°13' W 128°07'3 5.8
2018-May-30 01:00N 52°10' W 128°08'4 7.6
2018-May-30 00:30N 52°06' W 128°08'4 7.4
2018-May-30 00:00N 52°05' W 128°02'4 7.3
2018-May-29 23:30N 52°04' W 127°56'4 7.0
2018-May-29 23:00N 52°00' W 127°56'3 6.7
2018-May-29 22:30N 51°57' W 127°55'3 7.0
2018-May-29 22:00N 51°53' W 127°55'4 7.6
2018-May-29 21:30N 51°50' W 127°55'4 7.4
2018-May-29 21:00N 51°46' W 127°55'4 7.6
2018-May-29 20:30N 51°42' W 127°54'4 7.6
2018-May-29 20:00N 51°38' W 127°54'4 7.6
2018-May-29 19:30N 51°35' W 127°52'4 7.7
2018-May-29 19:00N 51°31' W 127°51'4 8.0
2018-May-29 18:30N 51°27' W 127°50'4 7.7
2018-May-29 17:58N 51°23' W 127°50'4 7.5
2018-May-29 17:30N 51°19' W 127°51'4 7.6
2018-May-29 16:59N 51°15' W 127°52'4 7.2
2018-May-29 16:29N 51°12' W 127°52'4 7.4
2018-May-29 16:00N 51°08' W 127°49'4 7.8
2018-May-29 15:30N 51°06' W 127°45'4 8.3
2018-May-29 15:00N 51°03' W 127°39'4 8.4
2018-May-29 14:30N 50°60' W 127°36'4 8.7
2018-May-29 14:00N 50°58' W 127°30'5 9.8
2018-May-29 13:30N 50°54' W 127°24'4 8.6
2018-May-29 13:00N 50°52' W 127°18'4 8.2
2018-May-29 12:30N 50°50' W 127°13'4 8.1
2018-May-29 12:00N 50°48' W 127°07'4 8.0
2018-May-29 11:29N 50°46' W 127°02'4 8.0
2018-May-29 10:58N 50°43' W 126°57'7 7.4
2018-May-29 10:01N 50°38' W 126°48'0 6.8
2018-May-29 09:57N 50°38' W 126°48'4 7.4
2018-May-29 09:26N 50°36' W 126°43'3 5.9
2018-May-29 08:58N 50°33' W 126°41'3 6.6
2018-May-29 08:29N 50°31' W 126°37'4 7.6
2018-May-29 08:00N 50°31' W 126°31'4 7.6
2018-May-29 07:30N 50°30' W 126°25'6 7.6
2018-May-29 06:44N 50°30' W 126°16'2 7.4
2018-May-29 06:26N 50°29' W 126°13'30 8.5
2018-May-29 02:52N 50°20' W 125°27'3 7.8
2018-May-29 02:29N 50°18' W 125°25'4 8.6
2018-May-29 02:00N 50°14' W 125°23'4 8.3
2018-May-29 01:30N 50°10' W 125°22'4 7.0
2018-May-29 01:00N 50°07' W 125°19'4 7.0
2018-May-29 00:30N 50°04' W 125°15'3 5.5
2018-May-29 00:00N 50°02' W 125°13'2 3.9
2018-May-28 23:30N 49°60' W 125°12'4 7.4
2018-May-28 22:59N 49°57' W 125°08'3 6.5
2018-May-28 22:29N 49°55' W 125°04'4 7.4
2018-May-28 22:00N 49°53' W 124°59'4 7.4
2018-May-28 21:30N 49°51' W 124°55'4 7.6
2018-May-28 21:00N 49°48' W 124°51'4 7.4
2018-May-28 20:30N 49°46' W 124°46'4 7.5
2018-May-28 20:00N 49°43' W 124°42'15 7.9
2018-May-28 18:04N 49°35' W 124°22'42 7.5
2018-May-28 12:28N 49°09' W 123°31'4 7.7
2018-May-28 11:59N 49°07' W 123°26'4 7.4
2018-May-28 11:29N 49°04' W 123°22'4 7.7
2018-May-28 10:59N 49°02' W 123°18'6 7.6
2018-May-28 10:12N 48°58' W 123°11'2 7.6
2018-May-28 10:00N 48°57' W 123°09'19 7.5
2018-May-28 07:30N 48°46' W 122°46'4 8.1
2018-May-28 06:58N 48°42' W 122°43'3 6.8
2018-May-28 06:30N 48°39' W 122°43'3 6.6
2018-May-28 06:00N 48°36' W 122°45'4 7.1
2018-May-28 05:30N 48°32' W 122°44'3 6.9
2018-May-28 05:00N 48°29' W 122°44'5 7.2
2018-May-28 04:21N 48°24' W 122°43'3 7.6
2018-May-28 04:00N 48°22' W 122°44'17 7.0
2018-May-28 01:34N 48°05' W 122°38'3 8.0
2018-May-28 01:13N 48°02' W 122°37'2 8.4
2018-May-28 01:00N 48°01' W 122°36'5 9.3
2018-May-28 00:30N 47°57' W 122°32'4 7.7
2018-May-28 00:00N 47°54' W 122°28'4 7.8
2018-May-27 23:30N 47°50' W 122°27'4 7.6
2018-May-27 23:00N 47°47' W 122°26'4 7.2
2018-May-27 22:30N 47°43' W 122°26'3 6.8
2018-May-27 22:00N 47°40' W 122°24'0 0.6
2018-May-27 21:30N 47°40' W 122°23'1 1.7
2018-May-27 21:01N 47°39' W 122°22'0 0.0
2018-May-27 20:30N 47°39' W 122°22'0 0.0
2018-May-27 20:00N 47°39' W 122°22'0 0.0
2018-May-27 19:30N 47°39' W 122°22'0 0.0
2018-May-27 19:00N 47°39' W 122°22'0 0.0
2018-May-27 18:30N 47°39' W 122°22'0 0.0
2018-May-27 18:00N 47°39' W 122°22'0 0.0
2018-May-27 17:30N 47°39' W 122°22'0 0.0
2018-May-27 17:00N 47°39' W 122°22'0 0.0
2018-May-27 16:30N 47°39' W 122°22'0 0.0
2018-May-27 16:00N 47°39' W 122°22'0 0.0
2018-May-27 15:30N 47°39' W 122°22'0 0.0
2018-May-27 15:00N 47°39' W 122°22'0 0.0
2018-May-27 14:30N 47°39' W 122°22'0 0.0
2018-May-27 14:00N 47°39' W 122°22'0 0.0
2018-May-27 13:30N 47°39' W 122°22'0 0.0
2018-May-27 13:00N 47°39' W 122°22'0 0.0
2018-May-27 12:30N 47°39' W 122°22'0 0.0
2018-May-27 12:00N 47°39' W 122°22'0 0.0
2018-May-27 11:31N 47°39' W 122°22'0 0.0
2018-May-27 11:00N 47°39' W 122°22'0 0.0
2018-May-27 10:30N 47°39' W 122°22'0 0.0
2018-May-27 10:00N 47°39' W 122°22'0 0.0
2018-May-27 09:30N 47°39' W 122°22'0 0.0
2018-May-27 09:00N 47°39' W 122°22'0 0.0
2018-May-27 08:30N 47°39' W 122°22'0 0.0
2018-May-27 08:00N 47°39' W 122°22'0 0.0
2018-May-27 07:30N 47°39' W 122°22'0 0.0
2018-May-27 07:00N 47°39' W 122°22'0 0.0
2018-May-27 06:29N 47°39' W 122°22'0 0.0
2018-May-27 06:00N 47°39' W 122°22'0 0.0
2018-May-27 05:30N 47°39' W 122°22'0 0.0
2018-May-27 05:00N 47°39' W 122°22'0 0.0
2018-May-27 04:30N 47°39' W 122°22'0 0.0
2018-May-27 04:00N 47°39' W 122°22'0 0.0
2018-May-27 03:30N 47°39' W 122°22'0 0.0
2018-May-27 03:00N 47°39' W 122°22'0 0.0
2018-May-27 02:30N 47°39' W 122°22'0 0.0
2018-May-27 02:00N 47°39' W 122°22'0 0.0
2018-May-27 01:30N 47°39' W 122°22'0 0.0
2018-May-27 01:00N 47°39' W 122°22'0 0.0
2018-May-27 00:31N 47°39' W 122°22'0 0.0
2018-May-27 00:00N 47°39' W 122°22'0 0.0
2018-May-26 23:30N 47°39' W 122°22'0 0.0
2018-May-26 23:00N 47°39' W 122°22'0 0.0
2018-May-26 22:30N 47°39' W 122°22'0 0.0
2018-May-26 22:00N 47°39' W 122°22'0 0.0
2018-May-26 21:30N 47°39' W 122°22'0 0.0
2018-May-26 21:00N 47°39' W 122°22'0 0.0
2018-May-26 20:30N 47°39' W 122°22'0 0.0
2018-May-26 20:00N 47°39' W 122°22'0 0.0
2018-May-26 19:30N 47°39' W 122°22'0 0.0
2018-May-26 19:00N 47°39' W 122°22'0 0.0
2018-May-26 18:30N 47°39' W 122°22'0 0.0
2018-May-26 18:00N 47°39' W 122°22'0 0.0
2018-May-26 17:30N 47°39' W 122°22'0 0.0
2018-May-26 17:00N 47°39' W 122°22'0 0.0
2018-May-26 16:30N 47°39' W 122°22'0 0.0
2018-May-26 16:00N 47°39' W 122°22'0 0.0
2018-May-26 15:30N 47°39' W 122°22'0 0.0
2018-May-26 15:00N 47°39' W 122°22'0 0.0
2018-May-26 14:30N 47°39' W 122°22'0 0.0
2018-May-26 14:00N 47°39' W 122°22'0 0.0
2018-May-26 13:30N 47°39' W 122°22'0 0.0
2018-May-26 13:00N 47°39' W 122°22'0 0.0
2018-May-26 12:30N 47°39' W 122°22'0 0.0
2018-May-26 12:00N 47°39' W 122°22'0 0.0
2018-May-26 11:30N 47°39' W 122°22'0 0.0
2018-May-26 11:00N 47°39' W 122°22'0 0.0
2018-May-26 10:30N 47°39' W 122°22'0 0.0
2018-May-26 10:00N 47°39' W 122°22'0 0.0
2018-May-26 09:30N 47°39' W 122°22'0 0.0
2018-May-26 09:00N 47°39' W 122°22'0 0.0
2018-May-26 08:30N 47°39' W 122°22'0 0.0
2018-May-26 08:00N 47°39' W 122°22'0 0.0
2018-May-26 07:30N 47°39' W 122°22'0 0.0
2018-May-26 07:00N 47°39' W 122°22'0 0.0
2018-May-26 06:30N 47°39' W 122°22'0 0.0
2018-May-26 05:30N 47°39' W 122°22'0 0.0
2018-May-26 05:00N 47°39' W 122°22'0 0.0
2018-May-26 04:30N 47°39' W 122°22'0 0.0
2018-May-26 04:00N 47°39' W 122°22'0 0.0
2018-May-26 03:30N 47°39' W 122°22'0 0.0
2018-May-26 03:00N 47°39' W 122°22'0 0.0
2018-May-26 02:30N 47°39' W 122°22'0 0.0
2018-May-26 02:00N 47°39' W 122°22'0 0.0
2018-May-26 01:30N 47°39' W 122°22'0 0.0
2018-May-26 01:00N 47°39' W 122°22'0 0.0
2018-May-26 00:30N 47°39' W 122°22'0 0.0
2018-May-26 00:00N 47°39' W 122°22'0 0.0
2018-May-25 23:30N 47°39' W 122°22'0 0.0
2018-May-25 23:00N 47°39' W 122°22'0 0.0
2018-May-25 22:30N 47°39' W 122°22'0 0.0
2018-May-25 22:00N 47°39' W 122°22'0 0.0
2018-May-25 21:30N 47°39' W 122°22'0 0.0
2018-May-25 21:00N 47°39' W 122°22'0 0.0
2018-May-25 20:30N 47°39' W 122°22'0 0.0
2018-May-25 20:00N 47°39' W 122°22'0 0.0
2018-May-25 19:30N 47°39' W 122°22'0 0.0
2018-May-25 19:00N 47°39' W 122°22'0 0.0
2018-May-25 18:30N 47°39' W 122°22'0 0.0
2018-May-25 18:01N 47°39' W 122°22'0 0.0
2018-May-25 17:31N 47°39' W 122°22'0 0.0
2018-May-25 17:00N 47°39' W 122°22'0 0.0
2018-May-25 16:30N 47°39' W 122°22'0 0.0
2018-May-25 16:00N 47°39' W 122°22'0 0.0
2018-May-25 15:30N 47°39' W 122°22'0 0.0
2018-May-25 15:00N 47°39' W 122°22'0 0.0
2018-May-25 14:31N 47°39' W 122°22'0 0.0
2018-May-25 14:01N 47°39' W 122°22'0 0.0
2018-May-25 13:30N 47°39' W 122°22'0 0.0
2018-May-25 13:00N 47°39' W 122°22'0 0.0
2018-May-25 12:30N 47°39' W 122°22'0 0.0
2018-May-25 12:00N 47°39' W 122°22'0 0.0
2018-May-25 11:30N 47°39' W 122°22'0 0.0
2018-May-25 11:00N 47°39' W 122°22'0 0.0
2018-May-25 10:31N 47°39' W 122°22'0 0.0
2018-May-25 10:01N 47°39' W 122°22'0 0.0
2018-May-25 09:30N 47°39' W 122°22'0 0.0
2018-May-25 09:00N 47°39' W 122°22'0 0.0
2018-May-25 08:30N 47°39' W 122°22'0 0.0
2018-May-25 08:01N 47°39' W 122°22'0 0.0
2018-May-25 07:31N 47°39' W 122°22'0 0.0
2018-May-25 07:01N 47°39' W 122°22'0 0.0
2018-May-25 06:30N 47°39' W 122°22'0 0.0
2018-May-25 06:01N 47°39' W 122°22'0 0.0
2018-May-25 05:31N 47°39' W 122°22'0 0.0
2018-May-25 05:01N 47°39' W 122°22'0 0.0
2018-May-25 04:30N 47°39' W 122°22'0 0.0
2018-May-25 04:01N 47°39' W 122°22'0 0.0
2018-May-25 03:30N 47°39' W 122°22'0 0.0
2018-May-25 03:01N 47°39' W 122°22'0 0.0
2018-May-25 02:30N 47°39' W 122°22'0 0.0
2018-May-25 02:00N 47°39' W 122°22'0 0.0
2018-May-25 01:31N 47°39' W 122°22'0 0.0
2018-May-25 01:01N 47°39' W 122°22'0 0.0
2018-May-25 00:31N 47°39' W 122°22'0 0.0
2018-May-25 00:00N 47°39' W 122°22'0 0.0
2018-May-24 23:30N 47°39' W 122°22'0 0.0
2018-May-24 23:00N 47°39' W 122°22'0 0.0
2018-May-24 22:30N 47°39' W 122°22'0 0.0
2018-May-24 22:01N 47°39' W 122°22'0 0.0
2018-May-24 21:31N 47°39' W 122°22'0 0.0
2018-May-24 21:00N 47°39' W 122°22'0 0.0
2018-May-24 20:31N 47°39' W 122°22'0 0.0
2018-May-24 20:00N 47°39' W 122°22'0 0.0
2018-May-24 19:29N 47°39' W 122°22'0 0.0
2018-May-24 19:00N 47°39' W 122°22'0 0.0
2018-May-24 18:30N 47°39' W 122°22'0 0.0
2018-May-24 18:01N 47°39' W 122°22'0 0.0
2018-May-24 17:31N 47°39' W 122°22'0 0.0
2018-May-24 17:00N 47°39' W 122°22'0 0.0
2018-May-24 16:30N 47°39' W 122°22'0 0.0
2018-May-24 16:01N 47°39' W 122°22'0 0.0
2018-May-24 15:30N 47°39' W 122°22'0 0.0
2018-May-24 15:01N 47°39' W 122°22'0 0.0
2018-May-24 14:30N 47°39' W 122°22'0 0.0
2018-May-24 14:01N 47°39' W 122°22'0 0.0
2018-May-24 13:31N 47°39' W 122°22'0 0.0
2018-May-24 09:00N 47°39' W 122°22'0 0.0
2018-May-24 08:30N 47°39' W 122°22'0 0.0
2018-May-24 08:01N 47°39' W 122°22'0 0.0
2018-May-24 07:30N 47°39' W 122°22'0 0.0
2018-May-24 07:00N 47°39' W 122°22'0 0.0
2018-May-24 06:31N 47°39' W 122°22'0 0.0
2018-May-24 06:00N 47°39' W 122°22'0 0.0
2018-May-24 05:31N 47°39' W 122°22'0 0.0
2018-May-24 05:00N 47°39' W 122°22'0 0.0
2018-May-24 04:30N 47°39' W 122°22'0 0.0
2018-May-24 04:00N 47°39' W 122°22'0 0.0
2018-May-24 03:30N 47°39' W 122°22'0 0.0
2018-May-24 03:00N 47°39' W 122°22'0 0.0
2018-May-24 02:30N 47°39' W 122°22'0 0.0
2018-May-24 02:01N 47°39' W 122°22'0 0.0
2018-May-24 01:31N 47°39' W 122°22'0 0.0
2018-May-24 01:00N 47°39' W 122°22'0 0.0
2018-May-24 00:31N 47°39' W 122°22'0 0.0
2018-May-24 00:00N 47°39' W 122°22'0 0.0
2018-May-23 23:30N 47°39' W 122°22'0 0.0
2018-May-23 23:00N 47°39' W 122°22'0 0.0
2018-May-23 22:31N 47°39' W 122°22'0 0.0
2018-May-23 22:01N 47°39' W 122°22'0 0.0
2018-May-23 21:30N 47°39' W 122°22'0 0.0
2018-May-23 21:00N 47°39' W 122°22'0 0.0
2018-May-23 20:31N 47°39' W 122°22'0 0.0
2018-May-23 20:00N 47°39' W 122°22'0 0.0
2018-May-23 19:30N 47°39' W 122°22'0 0.0
2018-May-23 19:00N 47°39' W 122°22'0 0.0
2018-May-23 18:30N 47°39' W 122°22'0 0.0
2018-May-23 18:00N 47°39' W 122°22'0 0.0
2018-May-23 17:30N 47°39' W 122°22'0 0.0
2018-May-23 17:00N 47°39' W 122°22'0 0.0
2018-May-23 16:30N 47°39' W 122°22'0 0.0
2018-May-23 16:00N 47°39' W 122°22'0 0.0
2018-May-23 15:30N 47°39' W 122°22'0 0.0
2018-May-23 15:00N 47°39' W 122°22'0 0.0
2018-May-23 14:30N 47°39' W 122°22'0 0.0
2018-May-23 14:00N 47°39' W 122°22'0 0.0
2018-May-23 13:30N 47°39' W 122°22'0 0.0
2018-May-23 13:00N 47°39' W 122°22'0 0.0
2018-May-23 12:30N 47°39' W 122°22'0 0.0
2018-May-23 12:00N 47°39' W 122°22'0 0.0
2018-May-23 11:30N 47°39' W 122°22'0 0.0
2018-May-23 11:00N 47°39' W 122°22'0 0.0
2018-May-23 10:30N 47°39' W 122°22'0 0.0
2018-May-23 10:00N 47°39' W 122°22'0 0.0
2018-May-23 09:30N 47°39' W 122°22'0 0.0
2018-May-23 09:00N 47°39' W 122°22'0 0.0
2018-May-23 08:30N 47°39' W 122°22'0 0.0
2018-May-23 08:00N 47°39' W 122°22'0 0.0
2018-May-23 07:30N 47°39' W 122°22'0 0.0
2018-May-23 07:00N 47°39' W 122°22'0 0.0
2018-May-23 06:30N 47°39' W 122°22'0 0.0
2018-May-23 06:00N 47°39' W 122°22'0 0.0
2018-May-23 05:30N 47°39' W 122°22'0 0.0
2018-May-23 05:00N 47°39' W 122°22'0 0.0
2018-May-23 04:30N 47°39' W 122°22'0 0.0
2018-May-23 04:00N 47°39' W 122°22'0 0.0
2018-May-23 03:30N 47°39' W 122°22'0 0.0
2018-May-23 03:00N 47°39' W 122°22'0 0.0
2018-May-23 02:30N 47°39' W 122°22'0 0.0
2018-May-23 02:00N 47°39' W 122°22'  
Track history (hours):
 
Tides and Currents Weather Stations Pressure Air Temp Water Temp Dewpoint Dewpoint Depression Visibility Wind Speed Wind Dir Waves Ship Positions

Muskrat

Owner: Sunnyvale Ventures LLC, seattle, WA. More information available from US FCC via Universal Licensing System and Coast Guard Vessel Documentation Center.

Last reported at 2018-Jun-02 01:45 UTC. Time now 2018-Jun-22 00:00 UTC.
Position N 58°17' W 136°19'.
Warning: this ship's position is 19 days out of date.

Length 26 m; draft 3 m.

Type: Fishing. MMSI: 367488280.

Date/timePositionNaut miles runAvg speedWind from/ knotsBaromVisibWave heightAir tempDewpointWater temp
2018-Jun-02 01:45N 58°17' W 136°19'3 9.2
2018-Jun-02 01:28N 58°17' W 136°14'4 8.9
2018-Jun-02 00:58N 58°15' W 136°07'3 5.5
2018-Jun-02 00:27N 58°15' W 136°01'3 6.6
2018-Jun-01 23:59N 58°16' W 135°56'3 6.7
2018-Jun-01 23:30N 58°17' W 135°50'3 6.1
2018-Jun-01 23:00N 58°17' W 135°44'267 6.0
2018-May-31 02:21N 54°43' W 130°55'9 7.9
2018-May-31 01:17N 54°37' W 130°44'3 9.0
2018-May-31 00:56N 54°34' W 130°43'4 8.7
2018-May-31 00:29N 54°30' W 130°41'4 8.4
2018-May-31 00:00N 54°27' W 130°39'4 8.1
2018-May-30 23:30N 54°23' W 130°37'4 8.0
2018-May-30 23:00N 54°19' W 130°34'4 7.9
2018-May-30 22:30N 54°16' W 130°31'4 8.3
2018-May-30 22:00N 54°12' W 130°28'4 8.1
2018-May-30 21:30N 54°08' W 130°24'4 8.5
2018-May-30 21:00N 54°05' W 130°19'4 8.8
2018-May-30 20:30N 54°02' W 130°14'5 9.0
2018-May-30 20:00N 53°58' W 130°12'4 7.8
2018-May-30 19:30N 53°54' W 130°09'4 7.8
2018-May-30 19:00N 53°52' W 130°03'4 7.7
2018-May-30 18:30N 53°49' W 129°59'83 7.1
2018-May-30 06:42N 52°44' W 128°33'4 8.9
2018-May-30 06:12N 52°39' W 128°32'2 8.3
2018-May-30 06:00N 52°38' W 128°30'4 7.7
2018-May-30 05:28N 52°34' W 128°29'4 7.7
2018-May-30 04:58N 52°30' W 128°28'3 7.5
2018-May-30 04:30N 52°27' W 128°28'4 8.2
2018-May-30 03:59N 52°23' W 128°30'4 7.9
2018-May-30 03:30N 52°19' W 128°29'4 8.1
2018-May-30 02:59N 52°16' W 128°25'4 8.1
2018-May-30 02:28N 52°15' W 128°18'4 7.8
2018-May-30 02:00N 52°14' W 128°13'4 7.2
2018-May-30 01:30N 52°13' W 128°07'3 5.8
2018-May-30 01:00N 52°10' W 128°08'4 7.6
2018-May-30 00:30N 52°06' W 128°08'4 7.4
2018-May-30 00:00N 52°05' W 128°02'4 7.3
2018-May-29 23:30N 52°04' W 127°56'4 7.0
2018-May-29 23:00N 52°00' W 127°56'3 6.7
2018-May-29 22:30N 51°57' W 127°55'3 7.0
2018-May-29 22:00N 51°53' W 127°55'4 7.6
2018-May-29 21:30N 51°50' W 127°55'4 7.4
2018-May-29 21:00N 51°46' W 127°55'4 7.6
2018-May-29 20:30N 51°42' W 127°54'4 7.6
2018-May-29 20:00N 51°38' W 127°54'4 7.6
2018-May-29 19:30N 51°35' W 127°52'4 7.7
2018-May-29 19:00N 51°31' W 127°51'4 8.0
2018-May-29 18:30N 51°27' W 127°50'4 7.7
2018-May-29 17:58N 51°23' W 127°50'4 7.5
2018-May-29 17:30N 51°19' W 127°51'4 7.6
2018-May-29 16:59N 51°15' W 127°52'4 7.2
2018-May-29 16:29N 51°12' W 127°52'4 7.4
2018-May-29 16:00N 51°08' W 127°49'4 7.8
2018-May-29 15:30N 51°06' W 127°45'4 8.3
2018-May-29 15:00N 51°03' W 127°39'4 8.4
2018-May-29 14:30N 50°60' W 127°36'4 8.7
2018-May-29 14:00N 50°58' W 127°30'5 9.8
2018-May-29 13:30N 50°54' W 127°24'4 8.6
2018-May-29 13:00N 50°52' W 127°18'4 8.2
2018-May-29 12:30N 50°50' W 127°13'4 8.1
2018-May-29 12:00N 50°48' W 127°07'4 8.0
2018-May-29 11:29N 50°46' W 127°02'4 8.0
2018-May-29 10:58N 50°43' W 126°57'7 7.4
2018-May-29 10:01N 50°38' W 126°48'0 6.8
2018-May-29 09:57N 50°38' W 126°48'4 7.4
2018-May-29 09:26N 50°36' W 126°43'3 5.9
2018-May-29 08:58N 50°33' W 126°41'3 6.6
2018-May-29 08:29N 50°31' W 126°37'4 7.6
2018-May-29 08:00N 50°31' W 126°31'4 7.6
2018-May-29 07:30N 50°30' W 126°25'6 7.6
2018-May-29 06:44N 50°30' W 126°16'2 7.4
2018-May-29 06:26N 50°29' W 126°13'30 8.5
2018-May-29 02:52N 50°20' W 125°27'3 7.8
2018-May-29 02:29N 50°18' W 125°25'4 8.6
2018-May-29 02:00N 50°14' W 125°23'4 8.3
2018-May-29 01:30N 50°10' W 125°22'4 7.0
2018-May-29 01:00N 50°07' W 125°19'4 7.0
2018-May-29 00:30N 50°04' W 125°15'3 5.5
2018-May-29 00:00N 50°02' W 125°13'2 3.9
2018-May-28 23:30N 49°60' W 125°12'4 7.4
2018-May-28 22:59N 49°57' W 125°08'3 6.5
2018-May-28 22:29N 49°55' W 125°04'4 7.4
2018-May-28 22:00N 49°53' W 124°59'4 7.4
2018-May-28 21:30N 49°51' W 124°55'4 7.6
2018-May-28 21:00N 49°48' W 124°51'4 7.4
2018-May-28 20:30N 49°46' W 124°46'4 7.5
2018-May-28 20:00N 49°43' W 124°42'15 7.9
2018-May-28 18:04N 49°35' W 124°22'42 7.5
2018-May-28 12:28N 49°09' W 123°31'4 7.7
2018-May-28 11:59N 49°07' W 123°26'4 7.4
2018-May-28 11:29N 49°04' W 123°22'4 7.7
2018-May-28 10:59N 49°02' W 123°18'6 7.6
2018-May-28 10:12N 48°58' W 123°11'2 7.6
2018-May-28 10:00N 48°57' W 123°09'19 7.5
2018-May-28 07:30N 48°46' W 122°46'4 8.1
2018-May-28 06:58N 48°42' W 122°43'3 6.8
2018-May-28 06:30N 48°39' W 122°43'3 6.6
2018-May-28 06:00N 48°36' W 122°45'4 7.1
2018-May-28 05:30N 48°32' W 122°44'3 6.9
2018-May-28 05:00N 48°29' W 122°44'5 7.2
2018-May-28 04:21N 48°24' W 122°43'3 7.6
2018-May-28 04:00N 48°22' W 122°44'17 7.0
2018-May-28 01:34N 48°05' W 122°38'3 8.0
2018-May-28 01:13N 48°02' W 122°37'2 8.4
2018-May-28 01:00N 48°01' W 122°36'5 9.3
2018-May-28 00:30N 47°57' W 122°32'4 7.7
2018-May-28 00:00N 47°54' W 122°28'4 7.8
2018-May-27 23:30N 47°50' W 122°27'4 7.6
2018-May-27 23:00N 47°47' W 122°26'4 7.2
2018-May-27 22:30N 47°43' W 122°26'3 6.8
2018-May-27 22:00N 47°40' W 122°24'0 0.6
2018-May-27 21:30N 47°40' W 122°23'1 1.7
2018-May-27 21:01N 47°39' W 122°22'0 0.0
2018-May-27 20:30N 47°39' W 122°22'0 0.0
2018-May-27 20:00N 47°39' W 122°22'0 0.0
2018-May-27 19:30N 47°39' W 122°22'0 0.0
2018-May-27 19:00N 47°39' W 122°22'0 0.0
2018-May-27 18:30N 47°39' W 122°22'0 0.0
2018-May-27 18:00N 47°39' W 122°22'0 0.0
2018-May-27 17:30N 47°39' W 122°22'0 0.0
2018-May-27 17:00N 47°39' W 122°22'0 0.0
2018-May-27 16:30N 47°39' W 122°22'0 0.0
2018-May-27 16:00N 47°39' W 122°22'0 0.0
2018-May-27 15:30N 47°39' W 122°22'0 0.0
2018-May-27 15:00N 47°39' W 122°22'0 0.0
2018-May-27 14:30N 47°39' W 122°22'0 0.0
2018-May-27 14:00N 47°39' W 122°22'0 0.0
2018-May-27 13:30N 47°39' W 122°22'0 0.0
2018-May-27 13:00N 47°39' W 122°22'0 0.0
2018-May-27 12:30N 47°39' W 122°22'0 0.0
2018-May-27 12:00N 47°39' W 122°22'0 0.0
2018-May-27 11:31N 47°39' W 122°22'0 0.0
2018-May-27 11:00N 47°39' W 122°22'0 0.0
2018-May-27 10:30N 47°39' W 122°22'0 0.0
2018-May-27 10:00N 47°39' W 122°22'0 0.0
2018-May-27 09:30N 47°39' W 122°22'0 0.0
2018-May-27 09:00N 47°39' W 122°22'0 0.0
2018-May-27 08:30N 47°39' W 122°22'0 0.0
2018-May-27 08:00N 47°39' W 122°22'0 0.0
2018-May-27 07:30N 47°39' W 122°22'0 0.0
2018-May-27 07:00N 47°39' W 122°22'0 0.0
2018-May-27 06:29N 47°39' W 122°22'0 0.0
2018-May-27 06:00N 47°39' W 122°22'0 0.0
2018-May-27 05:30N 47°39' W 122°22'0 0.0
2018-May-27 05:00N 47°39' W 122°22'0 0.0
2018-May-27 04:30N 47°39' W 122°22'0 0.0
2018-May-27 04:00N 47°39' W 122°22'0 0.0
2018-May-27 03:30N 47°39' W 122°22'0 0.0
2018-May-27 03:00N 47°39' W 122°22'0 0.0
2018-May-27 02:30N 47°39' W 122°22'0 0.0
2018-May-27 02:00N 47°39' W 122°22'0 0.0
2018-May-27 01:30N 47°39' W 122°22'0 0.0
2018-May-27 01:00N 47°39' W 122°22'0 0.0
2018-May-27 00:31N 47°39' W 122°22'0 0.0
2018-May-27 00:00N 47°39' W 122°22'0 0.0
2018-May-26 23:30N 47°39' W 122°22'0 0.0
2018-May-26 23:00N 47°39' W 122°22'0 0.0
2018-May-26 22:30N 47°39' W 122°22'0 0.0
2018-May-26 22:00N 47°39' W 122°22'0 0.0
2018-May-26 21:30N 47°39' W 122°22'0 0.0
2018-May-26 21:00N 47°39' W 122°22'0 0.0
2018-May-26 20:30N 47°39' W 122°22'0 0.0
2018-May-26 20:00N 47°39' W 122°22'0 0.0
2018-May-26 19:30N 47°39' W 122°22'0 0.0
2018-May-26 19:00N 47°39' W 122°22'0 0.0
2018-May-26 18:30N 47°39' W 122°22'0 0.0
2018-May-26 18:00N 47°39' W 122°22'0 0.0
2018-May-26 17:30N 47°39' W 122°22'0 0.0
2018-May-26 17:00N 47°39' W 122°22'0 0.0
2018-May-26 16:30N 47°39' W 122°22'0 0.0
2018-May-26 16:00N 47°39' W 122°22'0 0.0
2018-May-26 15:30N 47°39' W 122°22'0 0.0
2018-May-26 15:00N 47°39' W 122°22'0 0.0
2018-May-26 14:30N 47°39' W 122°22'0 0.0
2018-May-26 14:00N 47°39' W 122°22'0 0.0
2018-May-26 13:30N 47°39' W 122°22'0 0.0
2018-May-26 13:00N 47°39' W 122°22'0 0.0
2018-May-26 12:30N 47°39' W 122°22'0 0.0
2018-May-26 12:00N 47°39' W 122°22'0 0.0
2018-May-26 11:30N 47°39' W 122°22'0 0.0
2018-May-26 11:00N 47°39' W 122°22'0 0.0
2018-May-26 10:30N 47°39' W 122°22'0 0.0
2018-May-26 10:00N 47°39' W 122°22'0 0.0
2018-May-26 09:30N 47°39' W 122°22'0 0.0
2018-May-26 09:00N 47°39' W 122°22'0 0.0
2018-May-26 08:30N 47°39' W 122°22'0 0.0
2018-May-26 08:00N 47°39' W 122°22'0 0.0
2018-May-26 07:30N 47°39' W 122°22'0 0.0
2018-May-26 07:00N 47°39' W 122°22'0 0.0
2018-May-26 06:30N 47°39' W 122°22'0 0.0
2018-May-26 05:30N 47°39' W 122°22'0 0.0
2018-May-26 05:00N 47°39' W 122°22'0 0.0
2018-May-26 04:30N 47°39' W 122°22'0 0.0
2018-May-26 04:00N 47°39' W 122°22'0 0.0
2018-May-26 03:30N 47°39' W 122°22'0 0.0
2018-May-26 03:00N 47°39' W 122°22'0 0.0
2018-May-26 02:30N 47°39' W 122°22'0 0.0
2018-May-26 02:00N 47°39' W 122°22'0 0.0
2018-May-26 01:30N 47°39' W 122°22'0 0.0
2018-May-26 01:00N 47°39' W 122°22'0 0.0
2018-May-26 00:30N 47°39' W 122°22'0 0.0
2018-May-26 00:00N 47°39' W 122°22'0 0.0
2018-May-25 23:30N 47°39' W 122°22'0 0.0
2018-May-25 23:00N 47°39' W 122°22'0 0.0
2018-May-25 22:30N 47°39' W 122°22'0 0.0
2018-May-25 22:00N 47°39' W 122°22'0 0.0
2018-May-25 21:30N 47°39' W 122°22'0 0.0
2018-May-25 21:00N 47°39' W 122°22'0 0.0
2018-May-25 20:30N 47°39' W 122°22'0 0.0
2018-May-25 20:00N 47°39' W 122°22'0 0.0
2018-May-25 19:30N 47°39' W 122°22'0 0.0
2018-May-25 19:00N 47°39' W 122°22'0 0.0
2018-May-25 18:30N 47°39' W 122°22'0 0.0
2018-May-25 18:01N 47°39' W 122°22'0 0.0
2018-May-25 17:31N 47°39' W 122°22'0 0.0
2018-May-25 17:00N 47°39' W 122°22'0 0.0
2018-May-25 16:30N 47°39' W 122°22'0 0.0
2018-May-25 16:00N 47°39' W 122°22'0 0.0
2018-May-25 15:30N 47°39' W 122°22'0 0.0
2018-May-25 15:00N 47°39' W 122°22'0 0.0
2018-May-25 14:31N 47°39' W 122°22'0 0.0
2018-May-25 14:01N 47°39' W 122°22'0 0.0
2018-May-25 13:30N 47°39' W 122°22'0 0.0
2018-May-25 13:00N 47°39' W 122°22'0 0.0
2018-May-25 12:30N 47°39' W 122°22'0 0.0
2018-May-25 12:00N 47°39' W 122°22'0 0.0
2018-May-25 11:30N 47°39' W 122°22'0 0.0
2018-May-25 11:00N 47°39' W 122°22'0 0.0
2018-May-25 10:31N 47°39' W 122°22'0 0.0
2018-May-25 10:01N 47°39' W 122°22'0 0.0
2018-May-25 09:30N 47°39' W 122°22'0 0.0
2018-May-25 09:00N 47°39' W 122°22'0 0.0
2018-May-25 08:30N 47°39' W 122°22'0 0.0
2018-May-25 08:01N 47°39' W 122°22'0 0.0
2018-May-25 07:31N 47°39' W 122°22'0 0.0
2018-May-25 07:01N 47°39' W 122°22'0 0.0
2018-May-25 06:30N 47°39' W 122°22'0 0.0
2018-May-25 06:01N 47°39' W 122°22'0 0.0
2018-May-25 05:31N 47°39' W 122°22'0 0.0
2018-May-25 05:01N 47°39' W 122°22'0 0.0
2018-May-25 04:30N 47°39' W 122°22'0 0.0
2018-May-25 04:01N 47°39' W 122°22'0 0.0
2018-May-25 03:30N 47°39' W 122°22'0 0.0
2018-May-25 03:01N 47°39' W 122°22'0 0.0
2018-May-25 02:30N 47°39' W 122°22'0 0.0
2018-May-25 02:00N 47°39' W 122°22'0 0.0
2018-May-25 01:31N 47°39' W 122°22'0 0.0
2018-May-25 01:01N 47°39' W 122°22'0 0.0
2018-May-25 00:31N 47°39' W 122°22'0 0.0
2018-May-25 00:00N 47°39' W 122°22'0 0.0
2018-May-24 23:30N 47°39' W 122°22'0 0.0
2018-May-24 23:00N 47°39' W 122°22'0 0.0
2018-May-24 22:30N 47°39' W 122°22'0 0.0
2018-May-24 22:01N 47°39' W 122°22'0 0.0
2018-May-24 21:31N 47°39' W 122°22'0 0.0
2018-May-24 21:00N 47°39' W 122°22'0 0.0
2018-May-24 20:31N 47°39' W 122°22'0 0.0
2018-May-24 20:00N 47°39' W 122°22'0 0.0
2018-May-24 19:29N 47°39' W 122°22'0 0.0
2018-May-24 19:00N 47°39' W 122°22'0 0.0
2018-May-24 18:30N 47°39' W 122°22'0 0.0
2018-May-24 18:01N 47°39' W 122°22'0 0.0
2018-May-24 17:31N 47°39' W 122°22'0 0.0
2018-May-24 17:00N 47°39' W 122°22'0 0.0
2018-May-24 16:30N 47°39' W 122°22'0 0.0
2018-May-24 16:01N 47°39' W 122°22'0 0.0
2018-May-24 15:30N 47°39' W 122°22'0 0.0
2018-May-24 15:01N 47°39' W 122°22'0 0.0
2018-May-24 14:30N 47°39' W 122°22'0 0.0
2018-May-24 14:01N 47°39' W 122°22'0 0.0
2018-May-24 13:31N 47°39' W 122°22'0 0.0
2018-May-24 09:00N 47°39' W 122°22'0 0.0
2018-May-24 08:30N 47°39' W 122°22'0 0.0
2018-May-24 08:01N 47°39' W 122°22'0 0.0
2018-May-24 07:30N 47°39' W 122°22'0 0.0
2018-May-24 07:00N 47°39' W 122°22'0 0.0
2018-May-24 06:31N 47°39' W 122°22'0 0.0
2018-May-24 06:00N 47°39' W 122°22'0 0.0
2018-May-24 05:31N 47°39' W 122°22'0 0.0
2018-May-24 05:00N 47°39' W 122°22'0 0.0
2018-May-24 04:30N 47°39' W 122°22'0 0.0
2018-May-24 04:00N 47°39' W 122°22'0 0.0
2018-May-24 03:30N 47°39' W 122°22'0 0.0
2018-May-24 03:00N 47°39' W 122°22'0 0.0
2018-May-24 02:30N 47°39' W 122°22'0 0.0
2018-May-24 02:01N 47°39' W 122°22'0 0.0
2018-May-24 01:31N 47°39' W 122°22'0 0.0
2018-May-24 01:00N 47°39' W 122°22'0 0.0
2018-May-24 00:31N 47°39' W 122°22'0 0.0
2018-May-24 00:00N 47°39' W 122°22'0 0.0
2018-May-23 23:30N 47°39' W 122°22'0 0.0
2018-May-23 23:00N 47°39' W 122°22'0 0.0
2018-May-23 22:31N 47°39' W 122°22'0 0.0
2018-May-23 22:01N 47°39' W 122°22'0 0.0
2018-May-23 21:30N 47°39' W 122°22'0 0.0
2018-May-23 21:00N 47°39' W 122°22'0 0.0
2018-May-23 20:31N 47°39' W 122°22'0 0.0
2018-May-23 20:00N 47°39' W 122°22'0 0.0
2018-May-23 19:30N 47°39' W 122°22'0 0.0
2018-May-23 19:00N 47°39' W 122°22'0 0.0
2018-May-23 18:30N 47°39' W 122°22'0 0.0
2018-May-23 18:00N 47°39' W 122°22'0 0.0
2018-May-23 17:30N 47°39' W 122°22'0 0.0
2018-May-23 17:00N 47°39' W 122°22'0 0.0
2018-May-23 16:30N 47°39' W 122°22'0 0.0
2018-May-23 16:00N 47°39' W 122°22'0 0.0
2018-May-23 15:30N 47°39' W 122°22'0 0.0
2018-May-23 15:00N 47°39' W 122°22'0 0.0
2018-May-23 14:30N 47°39' W 122°22'0 0.0
2018-May-23 14:00N 47°39' W 122°22'0 0.0
2018-May-23 13:30N 47°39' W 122°22'0 0.0
2018-May-23 13:00N 47°39' W 122°22'0 0.0
2018-May-23 12:30N 47°39' W 122°22'0 0.0
2018-May-23 12:00N 47°39' W 122°22'0 0.0
2018-May-23 11:30N 47°39' W 122°22'0 0.0
2018-May-23 11:00N 47°39' W 122°22'0 0.0
2018-May-23 10:30N 47°39' W 122°22'0 0.0
2018-May-23 10:00N 47°39' W 122°22'0 0.0
2018-May-23 09:30N 47°39' W 122°22'0 0.0
2018-May-23 09:00N 47°39' W 122°22'0 0.0
2018-May-23 08:30N 47°39' W 122°22'0 0.0
2018-May-23 08:00N 47°39' W 122°22'0 0.0
2018-May-23 07:30N 47°39' W 122°22'0 0.0
2018-May-23 07:00N 47°39' W 122°22'0 0.0
2018-May-23 06:30N 47°39' W 122°22'0 0.0
2018-May-23 06:00N 47°39' W 122°22'0 0.0
2018-May-23 05:30N 47°39' W 122°22'0 0.0
2018-May-23 05:00N 47°39' W 122°22'0 0.0
2018-May-23 04:30N 47°39' W 122°22'0 0.0
2018-May-23 04:00N 47°39' W 122°22'0 0.0
2018-May-23 03:30N 47°39' W 122°22'0 0.0
2018-May-23 03:00N 47°39' W 122°22'0 0.0
2018-May-23 02:30N 47°39' W 122°22'0 0.0
2018-May-23 02:00N 47°39' W 122°22'  

Dump ship's entire track history